Time;durP1;ratioP1;P1;durP2;ratioP2;P2;SDS_P1;SDS_P2;PMS_P1;PMS_P2;Temp;Humidity;BMP_temperature;BMP_pressure;BME280_temperature;BME280_humidity;BME280_pressure;Samples;Min_cycle;Max_cycle;Signal;HPM_P1;HPM_P2
2022/05/14 00:00:49;;;;;;;5.63;1.65;;;12.00;99.20;;;;;;4988064;28;20046;-53
2022/05/14 00:03:15;;;;;;;4.22;1.25;;;11.90;99.30;;;;;;4987374;28;20916;-52
2022/05/14 00:05:42;;;;;;;5.60;1.65;;;11.90;99.30;;;;;;4987779;28;20097;-50
2022/05/14 00:08:09;;;;;;;6.40;1.52;;;11.90;99.30;;;;;;4985798;28;20034;-52
2022/05/14 00:13:03;;;;;;;5.68;1.45;;;11.90;99.30;;;;;;4988155;28;20102;-49
2022/05/14 00:13:22;;;;;;;9.45;1.50;;;11.90;99.40;;;;;;4982932;28;20045;-49
2022/05/14 00:15:48;;;;;;;8.85;1.80;;;11.90;99.30;;;;;;4986589;28;20038;-52
2022/05/14 00:18:14;;;;;;;5.72;1.55;;;12.00;99.20;;;;;;4987173;28;20629;-52
2022/05/14 00:20:40;;;;;;;6.25;1.45;;;12.00;99.20;;;;;;4987378;28;20066;-51
2022/05/14 00:23:06;;;;;;;5.38;1.58;;;12.00;99.30;;;;;;4966222;28;20430;-50
2022/05/14 00:25:34;;;;;;;11.73;1.80;;;12.00;99.20;;;;;;4988482;28;20062;-53
2022/05/14 00:27:59;;;;;;;4.63;1.05;;;11.90;99.40;;;;;;4986231;28;20034;-47
2022/05/14 00:30:29;;;;;;;8.05;1.60;;;11.90;99.50;;;;;;4986097;28;20477;-51
2022/05/14 00:32:55;;;;;;;7.00;1.60;;;11.90;99.90;;;;;;4968981;28;20113;-46
2022/05/14 00:35:21;;;;;;;8.52;1.65;;;11.90;99.90;;;;;;4984424;28;20129;-49
2022/05/14 00:37:47;;;;;;;8.63;1.25;;;11.90;99.90;;;;;;4985279;28;20133;-49
2022/05/14 00:40:19;;;;;;;7.95;1.40;;;12.00;99.90;;;;;;4982885;28;20121;-53
2022/05/14 00:42:44;;;;;;;6.60;1.60;;;12.00;99.90;;;;;;4964909;28;20145;-53
2022/05/14 00:45:12;;;;;;;5.85;1.25;;;12.00;99.90;;;;;;4987171;28;20165;-57
2022/05/14 00:47:40;;;;;;;7.20;1.60;;;12.10;99.90;;;;;;4988178;28;20152;-52
2022/05/14 00:50:16;;;;;;;5.60;1.58;;;12.10;99.90;;;;;;4984006;28;20093;-52
2022/05/14 00:52:42;;;;;;;4.70;1.80;;;12.10;99.90;;;;;;4968504;28;20038;-51
2022/05/14 00:55:08;;;;;;;4.97;1.40;;;12.20;99.90;;;;;;4983945;28;20034;-52
2022/05/14 00:57:38;;;;;;;9.63;1.77;;;12.10;99.90;;;;;;4980472;28;20100;-53
2022/05/14 01:00:10;;;;;;;9.20;1.50;;;12.10;99.90;;;;;;4984737;28;20046;-53
2022/05/14 01:02:35;;;;;;;5.82;1.58;;;12.00;99.90;;;;;;4967921;28;20057;-52
2022/05/14 01:05:01;;;;;;;5.90;1.65;;;12.00;99.90;;;;;;4984036;28;20031;-48
2022/05/14 01:07:29;;;;;;;6.68;1.90;;;12.00;99.90;;;;;;4987493;28;20064;-46
2022/05/14 01:10:01;;;;;;;5.60;1.30;;;12.00;99.90;;;;;;4986075;28;20048;-45
2022/05/14 01:12:29;;;;;;;8.73;1.67;;;11.90;99.90;;;;;;4986144;28;20057;-52
2022/05/14 01:15:18;;;;;;;8.95;1.85;;;11.90;99.90;;;;;;4952158;28;20129;-44
2022/05/14 01:17:44;;;;;;;8.70;1.85;;;11.90;99.90;;;;;;4983358;28;20042;-49
2022/05/14 01:20:11;;;;;;;8.13;2.17;;;11.90;99.90;;;;;;4987263;28;20042;-52
2022/05/14 01:22:50;;;;;;;11.10;2.33;;;11.90;99.90;;;;;;4985206;28;20042;-49
2022/05/14 01:28:24;;;;;;;8.30;2.30;;;11.80;99.90;;;;;;4983685;28;20100;-52
2022/05/14 01:30:54;;;;;;;8.57;2.40;;;11.70;99.90;;;;;;4986604;28;20388;-52
2022/05/14 01:33:20;;;;;;;9.45;2.05;;;11.60;99.90;;;;;;4983977;28;20074;-52
2022/05/14 01:35:46;;;;;;;6.22;2.00;;;11.60;99.90;;;;;;4983129;28;20085;-49
2022/05/14 01:38:12;;;;;;;7.45;2.00;;;11.50;99.90;;;;;;4984147;28;20038;-52
2022/05/14 01:40:38;;;;;;;11.02;2.58;;;11.50;99.90;;;;;;4987904;28;20037;-52
2022/05/14 01:43:04;;;;;;;8.02;2.45;;;11.50;99.90;;;;;;4985135;28;20038;-52
2022/05/14 01:45:31;;;;;;;5.90;1.90;;;11.40;99.90;;;;;;4982451;28;20034;-53
2022/05/14 01:47:57;;;;;;;9.45;1.95;;;11.40;99.90;;;;;;4984680;28;20034;-48
2022/05/14 01:50:23;;;;;;;9.40;2.38;;;11.40;99.90;;;;;;4966389;28;20042;-52
2022/05/14 01:52:48;;;;;;;10.32;2.47;;;11.40;99.90;;;;;;4986471;28;20431;-52
2022/05/14 01:55:14;;;;;;;9.90;2.10;;;11.30;99.90;;;;;;4985351;28;21815;-51
2022/05/14 01:57:40;;;;;;;10.10;2.90;;;11.30;99.90;;;;;;4967634;28;20051;-52
2022/05/14 02:00:08;;;;;;;8.70;2.05;;;11.30;99.90;;;;;;4982133;28;20148;-52
2022/05/14 02:02:33;;;;;;;9.30;2.38;;;11.20;99.90;;;;;;4988048;28;20522;-53
2022/05/14 02:04:59;;;;;;;5.93;2.05;;;11.20;99.90;;;;;;4984164;28;20030;-50
2022/05/14 02:07:25;;;;;;;11.13;2.85;;;11.30;99.90;;;;;;4984261;28;20085;-51
2022/05/14 02:09:51;;;;;;;8.57;1.88;;;11.30;99.90;;;;;;4986870;28;20367;-48
2022/05/14 02:12:17;;;;;;;10.55;2.60;;;11.40;99.90;;;;;;4967344;28;20038;-50
2022/05/14 02:14:44;;;;;;;9.60;2.30;;;11.40;99.90;;;;;;4952729;28;20042;-51
2022/05/14 02:17:09;;;;;;;12.30;3.40;;;11.40;99.90;;;;;;4985238;28;20039;-52
2022/05/14 02:19:35;;;;;;;9.30;3.13;;;11.40;99.90;;;;;;4965262;28;20045;-52
2022/05/14 02:22:01;;;;;;;11.88;3.15;;;11.40;99.90;;;;;;4987270;28;20042;-52
2022/05/14 02:24:26;;;;;;;10.95;2.45;;;11.50;99.90;;;;;;4984614;28;20082;-48
2022/05/14 02:26:52;;;;;;;6.93;2.03;;;11.50;99.90;;;;;;4988829;28;20036;-49
2022/05/14 02:29:18;;;;;;;10.63;2.42;;;11.50;99.90;;;;;;4989582;28;20637;-53
2022/05/14 02:31:45;;;;;;;8.80;2.60;;;11.50;99.90;;;;;;4984477;28;20124;-50
2022/05/14 02:34:10;;;;;;;8.02;2.47;;;11.50;99.90;;;;;;4989906;28;20042;-52
2022/05/14 02:36:36;;;;;;;8.80;2.40;;;11.50;99.90;;;;;;4987584;28;20046;-51
2022/05/14 02:39:03;;;;;;;6.32;2.25;;;11.50;99.90;;;;;;4987235;28;20037;-50
2022/05/14 02:41:28;;;;;;;12.32;3.05;;;11.50;99.90;;;;;;4968637;28;20451;-51
2022/05/14 02:43:54;;;;;;;7.75;2.33;;;11.40;99.90;;;;;;4984742;28;20038;-49
2022/05/14 02:46:20;;;;;;;12.85;2.78;;;11.30;99.90;;;;;;4970551;28;20130;-51
2022/05/14 02:48:46;;;;;;;11.40;3.03;;;11.30;99.90;;;;;;4989234;28;20046;-49
2022/05/14 02:51:13;;;;;;;9.90;3.15;;;11.30;99.90;;;;;;4988332;28;20113;-48
2022/05/14 02:53:38;;;;;;;9.52;3.53;;;11.20;99.90;;;;;;4987292;28;20050;-48
2022/05/14 02:56:04;;;;;;;8.15;3.17;;;11.10;99.90;;;;;;4985897;28;20058;-53
2022/05/14 03:01:15;;;;;;;13.32;3.28;;;11.10;99.90;;;;;;4985300;28;20764;-51
2022/05/14 03:03:40;;;;;;;12.98;3.00;;;11.10;99.90;;;;;;4987591;28;20129;-47
2022/05/14 03:06:06;;;;;;;9.38;2.78;;;11.00;99.90;;;;;;4987211;28;20042;-52
2022/05/14 03:08:32;;;;;;;11.55;2.90;;;10.90;99.90;;;;;;4969926;28;20050;-47
2022/05/14 03:10:58;;;;;;;9.52;3.15;;;10.90;99.90;;;;;;4986607;28;20392;-49
2022/05/14 03:13:23;;;;;;;9.68;3.50;;;10.90;99.90;;;;;;4986788;28;20073;-52
2022/05/14 03:15:49;;;;;;;11.25;3.40;;;10.80;99.90;;;;;;4970129;28;20125;-48
2022/05/14 03:18:15;;;;;;;12.85;3.33;;;10.70;99.90;;;;;;4986391;28;20498;-51
2022/05/14 03:20:41;;;;;;;10.50;3.22;;;10.60;99.90;;;;;;4987974;28;20049;-51
2022/05/14 03:23:06;;;;;;;11.60;3.55;;;10.60;99.90;;;;;;4987251;28;20499;-52
2022/05/14 03:25:32;;;;;;;12.52;4.70;;;10.50;99.90;;;;;;4985842;28;20046;-50
2022/05/14 03:27:58;;;;;;;15.50;3.55;;;10.50;99.90;;;;;;4966708;28;20030;-46
2022/05/14 03:30:24;;;;;;;13.18;4.18;;;10.40;99.90;;;;;;4987658;28;20037;-46
2022/05/14 03:32:50;;;;;;;13.32;3.22;;;10.40;99.90;;;;;;4949956;28;20046;-51
2022/05/14 03:35:16;;;;;;;8.23;3.08;;;10.30;99.90;;;;;;4987072;28;20050;-50
2022/05/14 03:37:41;;;;;;;10.77;3.80;;;10.30;99.90;;;;;;4987565;28;20747;-48
2022/05/14 03:40:09;;;;;;;12.00;3.45;;;10.30;99.90;;;;;;4986388;28;20496;-49
2022/05/14 03:42:35;;;;;;;9.55;3.33;;;10.40;99.90;;;;;;4966054;28;20098;-52
2022/05/14 03:45:00;;;;;;;10.55;3.40;;;10.30;99.90;;;;;;4987673;28;20480;-49
2022/05/14 03:47:26;;;;;;;10.10;3.25;;;10.30;99.90;;;;;;4984896;28;20495;-52
2022/05/14 03:49:52;;;;;;;10.38;3.60;;;10.30;99.90;;;;;;4984734;28;20038;-50
2022/05/14 03:52:18;;;;;;;7.22;2.90;;;10.30;99.90;;;;;;4969024;28;20499;-49
2022/05/14 03:54:45;;;;;;;9.90;3.40;;;10.20;99.90;;;;;;4987259;28;20049;-51
2022/05/14 03:57:12;;;;;;;13.27;3.72;;;10.20;99.90;;;;;;4969235;28;20122;-51
2022/05/14 03:59:38;;;;;;;7.35;3.00;;;10.20;99.90;;;;;;4985735;28;20475;-50
2022/05/14 04:02:05;;;;;;;11.80;3.72;;;10.20;99.90;;;;;;4983862;28;20034;-43
2022/05/14 04:04:31;;;;;;;9.57;3.35;;;10.20;99.90;;;;;;4987688;28;20458;-52
2022/05/14 04:06:57;;;;;;;11.52;3.78;;;10.20;99.90;;;;;;4985318;28;20157;-49
2022/05/14 04:09:23;;;;;;;9.82;3.22;;;10.10;99.90;;;;;;4987141;28;20107;-51
2022/05/14 04:11:49;;;;;;;7.28;3.45;;;10.10;99.90;;;;;;4985178;28;20517;-51
2022/05/14 04:14:15;;;;;;;9.98;3.10;;;10.10;99.90;;;;;;4985176;28;20121;-46
2022/05/14 04:16:41;;;;;;;6.93;2.55;;;10.00;99.90;;;;;;4968015;28;20042;-52
2022/05/14 04:19:07;;;;;;;5.95;2.60;;;10.10;99.90;;;;;;4984636;28;20507;-51
2022/05/14 04:21:33;;;;;;;12.70;3.17;;;10.10;99.90;;;;;;4968676;28;20057;-48
2022/05/14 04:23:59;;;;;;;7.82;3.42;;;10.10;99.90;;;;;;4985940;28;20572;-51
2022/05/14 04:26:26;;;;;;;11.50;3.13;;;10.10;99.90;;;;;;4986190;28;20499;-52
2022/05/14 04:28:52;;;;;;;10.27;3.40;;;10.00;99.90;;;;;;4986346;28;20042;-50
2022/05/14 04:31:18;;;;;;;7.65;3.05;;;10.00;99.90;;;;;;4981573;28;20045;-51
2022/05/14 04:33:44;;;;;;;10.07;3.28;;;10.00;99.90;;;;;;4969443;28;20042;-51
2022/05/14 04:36:09;;;;;;;6.82;3.28;;;10.10;99.90;;;;;;4984912;28;20053;-52
2022/05/14 04:38:35;;;;;;;9.00;2.85;;;10.10;99.90;;;;;;4987052;28;20038;-52
2022/05/14 04:41:01;;;;;;;10.68;3.20;;;10.20;99.90;;;;;;4985493;28;20044;-50
2022/05/14 04:43:27;;;;;;;8.65;3.38;;;10.20;99.90;;;;;;4984452;28;20131;-52
2022/05/14 04:45:52;;;;;;;13.18;3.25;;;10.30;99.90;;;;;;4986177;28;20046;-48
2022/05/14 04:48:18;;;;;;;11.10;3.78;;;10.30;99.90;;;;;;4985660;28;20042;-51
2022/05/14 04:50:45;;;;;;;10.27;3.42;;;10.30;99.90;;;;;;4986464;28;20129;-52
2022/05/14 04:53:12;;;;;;;14.65;4.00;;;10.20;99.90;;;;;;4983654;28;20045;-52
2022/05/14 04:55:38;;;;;;;8.52;3.22;;;10.20;99.90;;;;;;4985505;28;20154;-50
2022/05/14 04:58:06;;;;;;;12.50;3.95;;;10.20;99.90;;;;;;4982871;28;20615;-52
2022/05/14 05:00:32;;;;;;;10.30;3.22;;;10.20;99.90;;;;;;4985748;28;20570;-50
2022/05/14 05:05:42;;;;;;;10.02;3.13;;;10.20;99.90;;;;;;4965845;28;20129;-46
2022/05/14 05:08:09;;;;;;;9.35;3.38;;;10.30;99.90;;;;;;4987761;28;20539;-49
2022/05/14 05:10:35;;;;;;;13.70;4.25;;;10.30;99.90;;;;;;4985355;28;20065;-51
2022/05/14 05:13:01;;;;;;;8.02;3.33;;;10.30;99.90;;;;;;4984304;28;20092;-52
2022/05/14 05:15:27;;;;;;;11.57;3.95;;;10.30;99.90;;;;;;4986184;28;20034;-51
2022/05/14 05:17:54;;;;;;;14.23;4.00;;;10.40;99.90;;;;;;4984888;28;20471;-51
2022/05/14 05:20:19;;;;;;;10.27;3.78;;;10.40;99.90;;;;;;4983793;28;20087;-49
2022/05/14 05:22:45;;;;;;;10.40;4.43;;;10.40;99.90;;;;;;4986083;28;20415;-49
2022/05/14 05:25:12;;;;;;;11.07;3.65;;;10.50;99.90;;;;;;4985818;28;20062;-51
2022/05/14 05:27:37;;;;;;;14.25;4.15;;;10.60;99.90;;;;;;4983356;28;20046;-54
2022/05/14 05:30:05;;;;;;;15.32;4.53;;;10.60;99.90;;;;;;4971253;28;20131;-50
2022/05/14 05:32:30;;;;;;;13.43;3.95;;;10.70;99.90;;;;;;4985260;28;20539;-51
2022/05/14 05:34:56;;;;;;;12.05;4.25;;;10.80;99.90;;;;;;4985066;28;20125;-47
2022/05/14 05:37:22;;;;;;;14.70;4.55;;;10.80;99.90;;;;;;4968053;28;20070;-51
2022/05/14 05:39:47;;;;;;;14.82;4.60;;;10.90;99.90;;;;;;4985472;28;20483;-52
2022/05/14 05:42:13;;;;;;;15.00;4.47;;;11.00;99.90;;;;;;4985267;28;20609;-49
2022/05/14 05:44:39;;;;;;;14.10;4.63;;;11.00;99.90;;;;;;4966148;28;20091;-47
2022/05/14 05:47:09;;;;;;;13.60;4.75;;;11.10;99.90;;;;;;4977880;28;20069;-48
2022/05/14 05:49:37;;;;;;;14.20;4.55;;;11.20;99.90;;;;;;4980238;28;20062;-52
2022/05/14 05:52:03;;;;;;;12.73;4.97;;;11.30;99.90;;;;;;4984300;28;20117;-48
2022/05/14 05:57:13;;;;;;;11.93;4.60;;;11.50;99.90;;;;;;4989728;28;20054;-51
2022/05/14 05:59:39;;;;;;;13.73;5.65;;;11.60;99.90;;;;;;4991117;28;20057;-50
2022/05/14 06:02:06;;;;;;;18.13;5.07;;;11.60;99.90;;;;;;4987417;28;20436;-50
2022/05/14 06:04:32;;;;;;;16.25;5.18;;;11.70;99.90;;;;;;4987960;28;20057;-50
2022/05/14 06:06:58;;;;;;;17.05;6.32;;;11.90;99.90;;;;;;4971189;28;20046;-48
2022/05/14 06:09:26;;;;;;;13.73;5.50;;;12.00;99.90;;;;;;4974698;28;20057;-47
2022/05/14 06:11:52;;;;;;;14.38;5.78;;;12.10;99.90;;;;;;4986132;28;20089;-52
2022/05/14 06:14:18;;;;;;;20.67;6.18;;;12.10;99.90;;;;;;4986595;28;20648;-51
2022/05/14 06:16:44;;;;;;;15.07;6.18;;;12.20;99.90;;;;;;4987476;28;20495;-48
2022/05/14 06:19:10;;;;;;;15.18;5.75;;;12.30;99.90;;;;;;4989291;28;20579;-52
2022/05/14 06:21:37;;;;;;;18.38;6.18;;;12.40;99.90;;;;;;4991453;28;20121;-52
2022/05/14 06:24:04;;;;;;;17.05;6.00;;;12.50;99.90;;;;;;4987099;28;20109;-52
2022/05/14 06:26:30;;;;;;;18.58;6.20;;;12.60;99.90;;;;;;4974132;28;20432;-51
2022/05/14 06:28:56;;;;;;;18.70;6.35;;;12.70;99.90;;;;;;4969865;28;20554;-49
2022/05/14 06:31:22;;;;;;;14.82;5.80;;;12.80;99.90;;;;;;4989644;28;20034;-51
2022/05/14 06:33:48;;;;;;;16.00;6.68;;;12.90;99.90;;;;;;4987184;28;20502;-52
2022/05/14 06:36:15;;;;;;;24.83;6.40;;;13.10;99.90;;;;;;4990466;28;20049;-52
2022/05/14 06:38:41;;;;;;;22.38;6.75;;;13.20;99.90;;;;;;4969800;28;20046;-50
2022/05/14 06:41:09;;;;;;;21.63;6.93;;;13.30;99.90;;;;;;4987571;28;20038;-51
2022/05/14 06:43:36;;;;;;;18.75;6.45;;;13.40;99.90;;;;;;4990331;28;20057;-50
2022/05/14 06:46:02;;;;;;;18.70;6.35;;;13.50;99.90;;;;;;4969210;28;20050;-52
2022/05/14 06:48:27;;;;;;;16.80;5.97;;;13.70;99.90;;;;;;4988796;28;20088;-47
2022/05/14 06:50:55;;;;;;;24.13;6.00;;;13.80;99.90;;;;;;4971360;28;20100;-48
2022/05/14 06:53:22;;;;;;;16.67;5.25;;;13.90;99.90;;;;;;4987460;28;20084;-51
2022/05/14 06:55:52;;;;;;;17.42;6.25;;;14.00;99.90;;;;;;4987584;28;20065;-52
2022/05/14 06:58:23;;;;;;;19.23;6.20;;;14.10;99.90;;;;;;4988070;28;20116;-52
2022/05/14 07:00:50;;;;;;;20.08;5.63;;;14.20;99.90;;;;;;4988188;28;20121;-51
2022/05/14 07:08:45;;;;;;;17.65;6.60;;;14.40;99.90;;;;;;4986913;28;20050;-49
2022/05/14 07:11:11;;;;;;;22.92;6.50;;;14.50;99.90;;;;;;4985901;28;20054;-52
2022/05/14 07:13:37;;;;;;;15.20;5.47;;;14.70;99.90;;;;;;4988960;28;20180;-51
2022/05/14 07:16:04;;;;;;;20.45;5.63;;;14.70;99.90;;;;;;4970533;28;20069;-50
2022/05/14 07:18:30;;;;;;;18.45;5.35;;;14.80;99.90;;;;;;4989736;28;20061;-52
2022/05/14 07:20:56;;;;;;;19.08;5.45;;;14.80;99.90;;;;;;4988968;28;20046;-50
2022/05/14 07:23:21;;;;;;;19.65;5.70;;;14.90;99.90;;;;;;4991441;28;20041;-50
2022/05/14 07:25:47;;;;;;;17.73;5.38;;;15.00;99.90;;;;;;4989030;28;20038;-52
2022/05/14 07:28:13;;;;;;;18.70;5.78;;;15.00;99.90;;;;;;4988992;28;20204;-51
2022/05/14 07:30:38;;;;;;;22.10;7.10;;;15.10;99.90;;;;;;4966973;28;20040;-45
2022/05/14 07:33:05;;;;;;;16.20;4.90;;;15.20;99.90;;;;;;4985881;28;20352;-50
2022/05/14 07:35:33;;;;;;;14.63;4.82;;;15.20;99.90;;;;;;4984104;28;20047;-52
2022/05/14 07:38:02;;;;;;;16.35;5.45;;;15.30;99.90;;;;;;4982571;28;20535;-52
2022/05/14 07:40:29;;;;;;;18.17;6.05;;;15.40;99.90;;;;;;4982365;28;20069;-52
2022/05/14 07:43:17;;;;;;;16.15;5.03;;;15.40;99.90;;;;;;4966054;28;20038;-48
2022/05/14 07:45:49;;;;;;;13.95;4.25;;;15.50;99.90;;;;;;4985911;28;20489;-52
2022/05/14 07:48:21;;;;;;;20.35;4.43;;;15.60;99.90;;;;;;4986363;28;20038;-49
2022/05/14 07:50:48;;;;;;;14.05;4.60;;;15.70;99.90;;;;;;4983419;28;20039;-51
2022/05/14 07:53:16;;;;;;;17.77;3.67;;;15.80;99.90;;;;;;4984153;28;20460;-51
2022/05/14 07:55:43;;;;;;;17.83;3.08;;;15.90;99.90;;;;;;4986965;28;20525;-50
2022/05/14 07:58:09;;;;;;;11.65;3.00;;;15.90;99.90;;;;;;4980130;28;20050;-50
2022/05/14 08:00:35;;;;;;;20.40;3.75;;;15.90;99.90;;;;;;4985796;28;20541;-51
2022/05/14 08:03:01;;;;;;;20.30;3.78;;;15.90;99.90;;;;;;4988263;28;20065;-52
2022/05/14 08:05:27;;;;;;;15.52;2.97;;;15.90;99.90;;;;;;4984998;28;20073;-48
2022/05/14 08:07:53;;;;;;;14.05;3.08;;;15.90;99.70;;;;;;4983931;28;20132;-51
2022/05/14 08:10:19;;;;;;;13.60;2.70;;;16.00;99.60;;;;;;4964147;28;20527;-53
2022/05/14 08:12:53;;;;;;;13.90;3.10;;;16.20;98.60;;;;;;4985724;28;20089;-50
2022/05/14 08:15:21;;;;;;;11.55;3.15;;;16.30;97.70;;;;;;4983275;28;20074;-51
2022/05/14 08:17:47;;;;;;;18.92;3.95;;;16.40;96.90;;;;;;4986493;28;20050;-52
2022/05/14 08:20:14;;;;;;;21.08;4.68;;;16.50;96.30;;;;;;4968738;28;20038;-52
2022/05/14 08:25:26;;;;;;;18.92;3.45;;;16.70;98.10;;;;;;4983136;28;20046;-51
2022/05/14 08:27:52;;;;;;;14.98;4.03;;;16.90;97.90;;;;;;4984105;28;20042;-49
2022/05/14 08:30:21;;;;;;;16.38;4.28;;;17.00;97.10;;;;;;4982299;28;20125;-46
2022/05/14 08:32:47;;;;;;;22.60;4.60;;;17.20;96.90;;;;;;4979452;28;20407;-53
2022/05/14 08:35:14;;;;;;;15.25;3.20;;;17.50;96.70;;;;;;4967116;28;20042;-54
2022/05/14 08:37:40;;;;;;;14.95;3.83;;;17.50;95.00;;;;;;4983436;28;20519;-49
2022/05/14 08:40:17;;;;;;;15.93;3.35;;;17.60;93.80;;;;;;4950901;28;20038;-53
2022/05/14 08:42:47;;;;;;;13.27;3.28;;;17.60;93.90;;;;;;4986364;28;20645;-41
2022/05/14 08:45:15;;;;;;;13.15;3.13;;;17.40;93.60;;;;;;4979505;28;20365;-40
2022/05/14 08:47:54;;;;;;;16.73;3.33;;;17.30;93.70;;;;;;4986416;28;20567;-42
2022/05/14 08:50:24;;;;;;;15.00;3.47;;;17.20;94.60;;;;;;4982352;28;20042;-45
2022/05/14 08:52:50;;;;;;;13.88;3.28;;;17.10;95.70;;;;;;4986817;28;20046;-40
2022/05/14 08:55:18;;;;;;;16.77;3.85;;;16.90;96.70;;;;;;4955871;28;20097;-41
2022/05/14 08:57:46;;;;;;;18.42;3.55;;;16.70;96.50;;;;;;4986292;28;20042;-43
2022/05/14 09:00:13;;;;;;;19.45;3.38;;;16.70;96.60;;;;;;4984109;28;20044;-40
2022/05/14 09:02:51;;;;;;;14.95;3.22;;;16.80;96.60;;;;;;4968870;28;20502;-42
2022/05/14 09:05:21;;;;;;;14.80;2.85;;;17.10;94.60;;;;;;4968798;28;20128;-46
2022/05/14 09:07:50;;;;;;;20.50;2.97;;;17.30;93.20;;;;;;4984499;28;20050;-40
2022/05/14 09:10:21;;;;;;;14.75;3.10;;;17.60;92.10;;;;;;4984219;28;20499;-42
2022/05/14 09:13:13;;;;;;;13.07;3.08;;;17.70;91.50;;;;;;4980017;28;20039;-41
2022/05/14 09:16:06;;;;;;;15.77;3.35;;;17.70;89.70;;;;;;4964754;28;20065;-41
2022/05/14 09:18:44;;;;;;;16.85;3.53;;;17.40;89.20;;;;;;4967348;28;20050;-41
2022/05/14 09:21:21;;;;;;;14.32;2.67;;;17.40;90.00;;;;;;4986907;28;20425;-41
2022/05/14 09:23:56;;;;;;;10.90;2.88;;;17.60;90.20;;;;;;4983827;28;20125;-42
2022/05/14 09:26:31;;;;;;;15.18;3.15;;;17.80;86.40;;;;;;4979938;28;20035;-43
2022/05/14 09:29:11;;;;;;;16.50;3.63;;;17.90;85.60;;;;;;4981518;28;20050;-42
2022/05/14 09:31:48;;;;;;;9.98;2.20;;;17.90;85.00;;;;;;4985593;28;20119;-41
2022/05/14 09:34:16;;;;;;;14.77;2.83;;;18.10;83.90;;;;;;4984688;28;21418;-41
2022/05/14 09:36:45;;;;;;;16.60;3.35;;;18.20;80.80;;;;;;4988741;28;20038;-42
2022/05/14 09:39:16;;;;;;;19.67;3.33;;;18.40;78.30;;;;;;4983792;28;20388;-42
2022/05/14 09:41:42;;;;;;;17.38;2.70;;;18.40;76.90;;;;;;4983697;28;20041;-46
2022/05/14 09:44:24;;;;;;;17.27;3.65;;;18.40;76.20;;;;;;4986478;28;20038;-42
2022/05/14 09:46:52;;;;;;;13.13;2.70;;;18.40;75.20;;;;;;4968671;28;20077;-45
2022/05/14 09:49:26;;;;;;;13.13;3.10;;;18.50;75.80;;;;;;4980426;28;20383;-41
2022/05/14 09:51:56;;;;;;;16.42;2.95;;;18.50;72.80;;;;;;4985338;28;20132;-41
2022/05/14 09:54:43;;;;;;;15.63;2.92;;;18.50;72.20;;;;;;4986395;28;20514;-46
2022/05/14 09:57:13;;;;;;;12.65;2.72;;;18.40;69.40;;;;;;4987044;28;20070;-41
2022/05/14 10:00:03;;;;;;;18.70;3.10;;;18.60;72.20;;;;;;4989298;28;20168;-40
2022/05/14 10:02:51;;;;;;;16.52;3.13;;;18.80;67.30;;;;;;4988218;28;20034;-40
2022/05/14 10:05:35;;;;;;;12.77;3.05;;;19.00;67.40;;;;;;4979879;28;20440;-42
2022/05/14 10:08:20;;;;;;;12.57;2.72;;;19.20;67.10;;;;;;4978513;28;20369;-41
2022/05/14 10:10:52;;;;;;;13.93;2.58;;;19.40;63.90;;;;;;4970430;28;20054;-42
2022/05/14 10:13:35;;;;;;;12.83;2.50;;;19.70;66.80;;;;;;4984443;28;20042;-44
2022/05/14 10:16:10;;;;;;;17.88;3.10;;;19.90;63.40;;;;;;4988494;28;20096;-41
2022/05/14 10:18:57;;;;;;;13.38;2.80;;;20.00;62.50;;;;;;4964049;28;20048;-45
2022/05/14 10:22:04;;;;;;;12.60;2.42;;;19.70;60.10;;;;;;4987791;28;20062;-44
2022/05/14 10:28:19;;;;;;;16.02;3.30;;;19.50;59.20;;;;;;4931549;28;20054;-41
2022/05/14 10:31:24;;;;;;;14.43;2.60;;;19.60;57.70;;;;;;4985323;28;20071;-43
2022/05/14 10:33:53;;;;;;;15.02;2.85;;;19.70;59.60;;;;;;4981493;28;20065;-42
2022/05/14 10:37:03;;;;;;;13.35;2.55;;;19.80;59.90;;;;;;4960367;28;20174;-44
2022/05/14 10:39:40;;;;;;;9.30;2.67;;;19.80;56.10;;;;;;4986134;28;20137;-42
2022/05/14 10:42:16;;;;;;;13.82;3.08;;;19.90;57.00;;;;;;4984271;28;20042;-47
2022/05/14 10:44:59;;;;;;;9.50;2.47;;;20.00;57.10;;;;;;4981631;28;20042;-43
2022/05/14 10:47:26;;;;;;;9.65;2.85;;;20.10;57.90;;;;;;4970091;28;20054;-43
2022/05/14 10:49:59;;;;;;;20.40;3.50;;;20.10;55.00;;;;;;4986113;28;20145;-41
2022/05/14 10:52:25;;;;;;;14.85;2.97;;;20.20;54.40;;;;;;4985487;28;20030;-44
2022/05/14 10:54:52;;;;;;;10.90;3.00;;;20.20;54.40;;;;;;4985655;28;20030;-42
2022/05/14 10:57:17;;;;;;;12.20;2.83;;;20.30;55.60;;;;;;4985867;28;20050;-42
2022/05/14 10:59:57;;;;;;;10.32;2.72;;;20.40;53.30;;;;;;4959497;28;20433;-42
2022/05/14 11:02:29;;;;;;;11.73;2.97;;;20.30;53.60;;;;;;4985080;28;20155;-41
2022/05/14 11:04:56;;;;;;;14.07;2.80;;;20.40;55.00;;;;;;4985752;28;20341;-44
2022/05/14 11:07:39;;;;;;;12.40;2.75;;;20.50;55.60;;;;;;4983071;28;20057;-43
2022/05/14 11:10:19;;;;;;;11.10;2.53;;;20.70;53.80;;;;;;4981443;28;20125;-44
2022/05/14 11:12:46;;;;;;;12.88;2.60;;;20.80;53.70;;;;;;4980699;28;20472;-46
2022/05/14 11:15:27;;;;;;;12.38;2.55;;;20.80;52.80;;;;;;4980619;28;20046;-44
2022/05/14 11:18:11;;;;;;;14.50;3.15;;;21.00;52.30;;;;;;4985703;28;20487;-44
2022/05/14 11:20:39;;;;;;;12.90;2.50;;;20.90;50.90;;;;;;4989007;28;20043;-42
2022/05/14 11:23:12;;;;;;;13.60;2.95;;;20.90;50.90;;;;;;4983109;28;20039;-42
2022/05/14 11:25:38;;;;;;;13.63;3.05;;;20.90;52.30;;;;;;4981210;28;20042;-47
2022/05/14 11:28:18;;;;;;;10.80;2.47;;;21.00;52.60;;;;;;4986337;28;20048;-43
2022/05/14 11:30:55;;;;;;;17.50;3.85;;;21.10;52.00;;;;;;4979503;28;20122;-42
2022/05/14 11:33:26;;;;;;;14.50;2.72;;;21.10;50.00;;;;;;4982015;28;20049;-46
2022/05/14 11:35:56;;;;;;;14.83;2.60;;;21.10;49.70;;;;;;4983996;28;20035;-41
2022/05/14 11:38:25;;;;;;;12.07;3.00;;;21.20;51.50;;;;;;4983219;28;20377;-42
2022/05/14 11:41:06;;;;;;;9.75;2.75;;;21.20;50.20;;;;;;4984313;28;20080;-43
2022/05/14 11:43:36;;;;;;;8.18;2.00;;;21.30;49.70;;;;;;4970048;28;20050;-42
2022/05/14 11:46:29;;;;;;;13.77;2.92;;;21.50;50.70;;;;;;4979957;28;20145;-42
2022/05/14 11:49:21;;;;;;;13.98;2.70;;;21.40;48.40;;;;;;4980694;28;20293;-45
2022/05/14 11:52:37;;;;;;;12.30;3.10;;;21.40;48.10;;;;;;4983404;28;20104;-44
2022/05/14 11:55:20;;;;;;;17.38;2.92;;;21.40;49.20;;;;;;4959556;28;20129;-42
2022/05/14 11:58:35;;;;;;;13.80;3.03;;;21.40;48.80;;;;;;4987701;28;20138;-41
2022/05/14 12:01:07;;;;;;;14.98;3.30;;;21.40;49.30;;;;;;4974012;28;20039;-42
2022/05/14 12:03:37;;;;;;;10.32;2.90;;;21.50;49.50;;;;;;4985678;28;20106;-41
2022/05/14 12:06:14;;;;;;;15.05;3.55;;;21.60;48.90;;;;;;4986481;28;20062;-50
2022/05/14 12:09:01;;;;;;;12.02;2.67;;;21.60;47.20;;;;;;4985588;28;20038;-44
2022/05/14 12:11:38;;;;;;;11.10;3.10;;;21.70;48.20;;;;;;4983247;28;20103;-47
2022/05/14 12:14:12;;;;;;;11.98;2.90;;;21.70;47.30;;;;;;4983564;28;20109;-41
2022/05/14 12:16:53;;;;;;;10.75;2.45;;;21.90;48.10;;;;;;4985415;28;20447;-46
2022/05/14 12:19:30;;;;;;;9.70;2.50;;;22.10;48.30;;;;;;4989447;28;20038;-43
2022/05/14 12:21:59;;;;;;;13.82;3.03;;;22.10;47.20;;;;;;4987138;28;20034;-44
2022/05/14 12:24:28;;;;;;;14.10;2.97;;;22.20;46.70;;;;;;4979100;28;20035;-44
2022/05/14 12:26:55;;;;;;;9.77;2.40;;;22.20;46.50;;;;;;4967841;28;20089;-45
2022/05/14 12:29:29;;;;;;;11.93;2.85;;;22.20;47.20;;;;;;4967503;28;20050;-44
2022/05/14 12:34:52;;;;;;;11.98;2.58;;;22.00;46.00;;;;;;4985044;28;20050;-44
2022/05/14 12:37:39;;;;;;;13.63;2.83;;;22.00;46.60;;;;;;4985972;28;20044;-43
2022/05/14 12:40:06;;;;;;;13.77;2.70;;;22.10;46.90;;;;;;4989663;28;20042;-43
2022/05/14 12:42:41;;;;;;;14.07;3.05;;;22.10;47.10;;;;;;4988435;28;20406;-49
2022/05/14 12:45:09;;;;;;;10.98;2.42;;;22.10;45.70;;;;;;4968330;28;20046;-44
2022/05/14 12:47:37;;;;;;;10.43;2.20;;;22.10;46.30;;;;;;4986861;28;20078;-49
2022/05/14 12:50:15;;;;;;;11.90;2.53;;;22.20;45.80;;;;;;4984504;28;20106;-43
2022/05/14 12:52:52;;;;;;;9.95;2.60;;;22.20;45.60;;;;;;4989523;28;20042;-43
2022/05/14 12:55:19;;;;;;;11.23;2.35;;;22.30;45.50;;;;;;4988492;28;20552;-43
2022/05/14 12:57:46;;;;;;;11.07;2.78;;;22.50;46.00;;;;;;4985592;28;20059;-44
2022/05/14 13:00:15;;;;;;;11.90;2.47;;;22.70;45.60;;;;;;4970499;28;20042;-44
2022/05/14 13:02:49;;;;;;;15.95;3.13;;;23.10;45.00;;;;;;4988298;28;20038;-46
2022/05/14 13:05:24;;;;;;;11.48;2.83;;;23.00;43.40;;;;;;4987853;28;20085;-47
2022/05/14 13:07:54;;;;;;;12.52;2.80;;;22.90;43.60;;;;;;4985481;28;20034;-45
2022/05/14 13:10:24;;;;;;;12.50;2.90;;;22.90;44.20;;;;;;4987922;28;20625;-46
2022/05/14 13:12:54;;;;;;;11.23;2.53;;;23.00;43.70;;;;;;4988419;28;20046;-48
2022/05/14 13:15:29;;;;;;;9.05;2.58;;;23.10;44.00;;;;;;4987234;28;20034;-45
2022/05/14 13:17:55;;;;;;;11.10;2.33;;;23.10;44.50;;;;;;4982717;28;20069;-47
2022/05/14 13:20:25;;;;;;;11.75;2.40;;;23.20;44.00;;;;;;4986145;28;20084;-44